createdAt,value
2022-12-04T00:01:15.159Z,94.60
2022-12-04T00:03:42.439Z,90.97
2022-12-04T00:06:11.585Z,81.77
2022-12-04T00:08:39.372Z,79.57
2022-12-04T00:11:07.888Z,69.90
2022-12-04T00:13:36.113Z,78.27
2022-12-04T00:16:07.464Z,79.53
2022-12-04T00:18:35.304Z,73.47
2022-12-04T00:21:09.166Z,78.10
2022-12-04T00:23:37.767Z,85.07
2022-12-04T00:26:07.443Z,84.47
2022-12-04T00:28:35.211Z,81.97
2022-12-04T00:31:06.114Z,76.73
2022-12-04T00:33:33.858Z,79.40
2022-12-04T00:36:03.137Z,77.23
2022-12-04T00:38:30.170Z,74.10
2022-12-04T00:40:56.961Z,74.47
2022-12-04T00:43:24.315Z,84.40
2022-12-04T00:45:51.171Z,87.77
2022-12-04T00:48:18.237Z,115.20
2022-12-04T00:50:45.005Z,93.17
2022-12-04T00:53:12.634Z,93.27
2022-12-04T00:55:40.363Z,99.30
2022-12-04T00:58:07.947Z,68.93
2022-12-04T01:00:35.808Z,82.67
2022-12-04T01:03:03.044Z,73.93
2022-12-04T01:05:30.280Z,83.83
2022-12-04T01:07:57.490Z,82.27
2022-12-04T01:10:24.533Z,81.60
2022-12-04T01:12:53.537Z,103.53
2022-12-04T01:15:20.279Z,107.33
2022-12-04T01:17:47.491Z,90.70
2022-12-04T01:20:14.540Z,86.60
2022-12-04T01:22:41.615Z,83.20
2022-12-04T01:25:08.899Z,89.63
2022-12-04T01:27:35.965Z,78.93
2022-12-04T01:30:02.852Z,74.37
2022-12-04T01:32:29.928Z,74.10
2022-12-04T01:34:56.672Z,70.20
2022-12-04T01:37:23.955Z,78.57
2022-12-04T01:39:50.664Z,95.90
2022-12-04T01:42:17.707Z,109.43
2022-12-04T01:45:23.177Z,99.97
2022-12-04T01:47:50.316Z,76.03
2022-12-04T01:50:17.047Z,67.07
2022-12-04T01:52:44.095Z,83.70
2022-12-04T01:55:10.903Z,75.00
2022-12-04T01:57:39.029Z,69.10
2022-12-04T02:00:10.974Z,67.07
2022-12-04T02:02:40.980Z,70.30
2022-12-04T02:05:11.002Z,89.00
2022-12-04T02:07:39.564Z,71.17
2022-12-04T02:10:08.856Z,75.47
2022-12-04T02:12:48.569Z,70.57
2022-12-04T02:15:25.796Z,65.83
2022-12-04T02:17:52.822Z,71.10
2022-12-04T02:20:33.753Z,62.37
2022-12-04T02:23:16.126Z,62.80
2022-12-04T02:26:20.531Z,62.07
2022-12-04T02:29:03.301Z,68.70
2022-12-04T02:31:34.116Z,61.50
2022-12-04T02:34:22.619Z,66.83
2022-12-04T02:37:01.834Z,60.87
2022-12-04T02:39:41.421Z,60.43
2022-12-04T02:42:12.179Z,55.30
2022-12-04T02:44:43.387Z,64.67
2022-12-04T02:47:13.778Z,55.80
2022-12-04T02:49:45.626Z,61.17
2022-12-04T02:52:15.157Z,76.47
2022-12-04T02:54:46.653Z,53.93
2022-12-04T02:57:18.837Z,59.30
2022-12-04T02:59:47.569Z,54.47
2022-12-04T03:02:47.247Z,55.97
2022-12-04T03:05:17.418Z,58.57
2022-12-04T03:07:52.881Z,50.37
2022-12-04T03:10:25.529Z,52.57
2022-12-04T03:12:55.282Z,49.87
2022-12-04T03:15:26.913Z,57.90
2022-12-04T03:17:59.076Z,62.47
2022-12-04T03:20:26.290Z,60.17
2022-12-04T03:23:00.086Z,66.20
2022-12-04T03:25:33.032Z,46.77
2022-12-04T03:28:09.040Z,49.50
2022-12-04T03:30:40.237Z,52.33
2022-12-04T03:33:14.475Z,53.27
2022-12-04T03:35:46.411Z,52.57
2022-12-04T03:38:34.060Z,49.47
2022-12-04T03:41:08.692Z,60.77
2022-12-04T03:43:46.709Z,55.97
2022-12-04T03:46:34.877Z,48.47
2022-12-04T03:49:13.682Z,46.80
2022-12-04T03:51:47.608Z,49.70
2022-12-04T03:54:17.458Z,47.00
2022-12-04T03:56:52.227Z,43.80
2022-12-04T03:59:23.469Z,46.23
2022-12-04T04:01:51.421Z,43.80
2022-12-04T04:04:23.281Z,41.63
2022-12-04T04:06:56.992Z,47.77
2022-12-04T04:09:25.786Z,41.97
2022-12-04T04:12:15.806Z,68.57
2022-12-04T04:15:10.531Z,53.93
2022-12-04T04:18:03.370Z,47.17
2022-12-04T04:20:58.518Z,48.60
2022-12-04T04:23:48.306Z,46.33
2022-12-04T04:26:15.309Z,43.00
2022-12-04T04:28:42.613Z,43.70
2022-12-04T04:31:20.384Z,44.57
2022-12-04T04:34:01.920Z,64.97
2022-12-04T04:36:55.823Z,65.83
2022-12-04T04:39:28.614Z,53.03
2022-12-04T04:42:11.220Z,46.17
2022-12-04T04:45:06.664Z,51.30
2022-12-04T04:47:38.325Z,45.67
2022-12-04T04:50:08.958Z,41.90
2022-12-04T04:52:37.953Z,41.43
2022-12-04T04:55:05.747Z,56.73
2022-12-04T04:57:35.848Z,58.80
2022-12-04T05:00:09.732Z,51.73
2022-12-04T05:02:36.723Z,47.57
2022-12-04T05:05:04.412Z,44.47
2022-12-04T05:07:31.222Z,50.30
2022-12-04T05:09:58.602Z,51.10
2022-12-04T05:12:25.540Z,43.10
2022-12-04T05:14:52.740Z,49.90
2022-12-04T05:17:19.490Z,50.47
2022-12-04T05:19:57.017Z,54.80
2022-12-04T05:22:31.643Z,61.97
2022-12-04T05:24:59.337Z,50.50
2022-12-04T05:27:27.040Z,49.83
2022-12-04T05:29:55.500Z,46.87
2022-12-04T05:32:24.008Z,48.17
2022-12-04T05:34:52.311Z,47.83
2022-12-04T05:37:20.218Z,44.90
2022-12-04T05:39:47.740Z,42.20
2022-12-04T05:42:14.704Z,42.20
2022-12-04T05:44:41.785Z,42.10
2022-12-04T05:47:08.678Z,49.37
2022-12-04T05:49:35.908Z,49.73
2022-12-04T05:52:04.336Z,47.47
2022-12-04T05:54:31.733Z,44.43
2022-12-04T05:56:58.546Z,41.60
2022-12-04T05:59:25.615Z,48.10
2022-12-04T06:01:52.433Z,45.80
2022-12-04T06:04:19.712Z,46.83
2022-12-04T06:06:46.449Z,44.33
2022-12-04T06:09:13.548Z,51.63
2022-12-04T06:11:42.105Z,65.37
2022-12-04T06:14:12.239Z,53.53
2022-12-04T06:16:41.976Z,53.00
2022-12-04T06:19:12.387Z,50.10
2022-12-04T06:21:40.448Z,46.10
2022-12-04T06:24:08.298Z,43.57
2022-12-04T06:26:35.032Z,47.63
2022-12-04T06:29:02.363Z,49.10
2022-12-04T06:31:29.930Z,50.20
2022-12-04T06:33:57.888Z,56.50
2022-12-04T06:36:25.012Z,49.70
2022-12-04T06:38:54.971Z,51.07
2022-12-04T06:41:22.221Z,43.13
2022-12-04T06:43:50.721Z,46.67
2022-12-04T06:46:20.074Z,49.70
2022-12-04T06:48:47.219Z,43.23
2022-12-04T06:51:17.144Z,49.27
2022-12-04T06:53:44.231Z,49.27
2022-12-04T06:56:14.331Z,46.13
2022-12-04T06:58:41.452Z,69.80
2022-12-04T07:01:11.138Z,64.97
2022-12-04T07:03:38.936Z,63.03
2022-12-04T07:06:11.835Z,63.57
2022-12-04T07:08:38.935Z,52.77
2022-12-04T07:11:05.800Z,48.60
2022-12-04T07:13:32.963Z,43.37
2022-12-04T07:16:01.341Z,41.27
2022-12-04T07:18:29.675Z,42.37
2022-12-04T07:20:56.573Z,37.47
2022-12-04T07:23:24.115Z,47.87
2022-12-04T07:25:51.215Z,36.47
2022-12-04T07:28:18.250Z,44.73
2022-12-04T07:30:45.057Z,36.93
2022-12-04T07:33:12.157Z,44.33
2022-12-04T07:35:38.937Z,36.60
2022-12-04T07:38:06.108Z,54.83
2022-12-04T07:40:32.912Z,66.30
2022-12-04T07:42:59.986Z,35.23
2022-12-04T07:45:26.944Z,47.60
2022-12-04T07:47:54.271Z,46.50
2022-12-04T07:50:21.045Z,80.53
2022-12-04T07:52:48.107Z,59.87
2022-12-04T07:55:20.118Z,81.53
2022-12-04T07:57:50.025Z,53.57
2022-12-04T08:00:17.143Z,100.93
2022-12-04T08:02:44.200Z,75.57
2022-12-04T08:05:11.663Z,69.67
2022-12-04T08:07:38.887Z,38.83
2022-12-04T08:10:06.224Z,49.13
2022-12-04T08:12:33.403Z,33.90
2022-12-04T08:15:00.338Z,55.23
2022-12-04T08:17:27.786Z,43.93
2022-12-04T08:19:55.124Z,34.73
2022-12-04T08:22:25.220Z,44.60
2022-12-04T08:24:52.661Z,41.83
2022-12-04T08:27:20.317Z,27.17
2022-12-04T08:29:47.767Z,30.67
2022-12-04T08:32:15.526Z,35.57
2022-12-04T08:34:42.942Z,26.67
2022-12-04T08:37:10.776Z,23.90
2022-12-04T08:39:38.300Z,34.07
2022-12-04T08:42:05.820Z,37.77
2022-12-04T08:44:32.997Z,78.57
2022-12-04T08:47:00.456Z,52.50
2022-12-04T08:49:27.815Z,78.10
2022-12-04T08:51:55.111Z,36.03
2022-12-04T08:54:22.145Z,28.93
2022-12-04T08:56:49.540Z,27.77
2022-12-04T08:59:16.888Z,23.50
2022-12-04T09:01:45.112Z,45.00
2022-12-04T09:04:12.320Z,22.40
2022-12-04T09:06:39.423Z,26.73
2022-12-04T09:09:07.206Z,43.97
2022-12-04T09:11:35.378Z,32.83
2022-12-04T09:14:03.975Z,32.33
2022-12-04T09:16:32.076Z,20.37
2022-12-04T09:18:59.401Z,23.67
2022-12-04T09:21:26.896Z,32.70
2022-12-04T09:23:54.323Z,22.00
2022-12-04T09:26:25.603Z,23.83
2022-12-04T09:28:53.817Z,24.10
2022-12-04T09:31:22.165Z,24.13
2022-12-04T09:33:49.263Z,42.63
2022-12-04T09:36:16.567Z,33.57
2022-12-04T09:38:44.850Z,36.13
2022-12-04T09:41:22.132Z,33.10
2022-12-04T09:44:18.673Z,29.47
2022-12-04T09:47:00.094Z,28.90
2022-12-04T09:49:35.764Z,29.83
2022-12-04T09:52:09.944Z,28.33
2022-12-04T09:54:40.906Z,26.33
2022-12-04T09:57:16.263Z,24.20
2022-12-04T09:59:43.875Z,33.33
2022-12-04T10:02:30.197Z,51.40
2022-12-04T10:04:58.442Z,36.53
2022-12-04T10:07:40.792Z,34.10
2022-12-04T10:10:17.342Z,28.07
2022-12-04T10:12:59.029Z,73.20
2022-12-04T10:15:38.651Z,27.10
2022-12-04T10:18:23.394Z,25.50
2022-12-04T10:21:02.416Z,28.90
2022-12-04T10:23:46.152Z,24.40
2022-12-04T10:26:19.278Z,238.10
2022-12-04T10:28:59.899Z,323.93
2022-12-04T10:31:28.517Z,91.77
2022-12-04T10:34:23.501Z,54.67
2022-12-04T10:36:54.464Z,38.70
2022-12-04T10:39:37.149Z,27.53
2022-12-04T10:42:11.040Z,30.20
2022-12-04T10:44:38.884Z,25.13
2022-12-04T10:47:06.736Z,27.37
2022-12-04T10:49:35.701Z,46.90
2022-12-04T10:52:03.495Z,135.53
2022-12-04T10:54:49.357Z,59.60
2022-12-04T10:57:18.034Z,101.43
2022-12-04T10:59:50.385Z,73.57
2022-12-04T11:02:27.413Z,67.27
2022-12-04T11:05:00.705Z,49.00
2022-12-04T11:07:30.463Z,37.23
2022-12-04T11:10:03.344Z,80.13
2022-12-04T11:12:31.011Z,80.87
2022-12-04T11:15:06.884Z,99.20
2022-12-04T11:17:33.708Z,61.90
2022-12-04T11:20:07.341Z,31.87
2022-12-04T11:22:36.019Z,47.93
2022-12-04T11:25:03.083Z,37.67
2022-12-04T11:27:32.678Z,59.10
2022-12-04T11:30:11.024Z,28.07
2022-12-04T11:32:38.700Z,24.57
2022-12-04T11:35:13.698Z,25.53
2022-12-04T11:37:45.284Z,35.63
2022-12-04T11:40:18.769Z,33.67
2022-12-04T11:42:58.276Z,26.03
2022-12-04T11:45:25.341Z,31.20
2022-12-04T11:48:02.052Z,24.13
2022-12-04T11:50:51.468Z,23.00
2022-12-04T11:53:37.301Z,22.30
2022-12-04T11:56:16.878Z,25.50
2022-12-04T11:59:22.310Z,27.93
2022-12-04T12:01:58.181Z,42.47
2022-12-04T12:04:40.482Z,31.30
2022-12-04T12:07:13.803Z,26.27
2022-12-04T12:10:10.401Z,36.33
2022-12-04T12:12:56.349Z,37.33
2022-12-04T12:16:00.725Z,24.87
2022-12-04T12:18:56.519Z,27.97
2022-12-04T12:21:33.286Z,23.97
2022-12-04T12:24:30.794Z,28.20
2022-12-04T12:27:19.168Z,24.10
2022-12-04T12:30:08.714Z,47.03
2022-12-04T12:33:01.412Z,33.03
2022-12-04T12:35:40.058Z,26.03
2022-12-04T12:38:19.018Z,26.93
2022-12-04T12:41:26.332Z,32.17
2022-12-04T12:44:20.475Z,22.17
2022-12-04T12:46:51.678Z,22.30
2022-12-04T12:49:31.674Z,20.37
2022-12-04T12:52:12.973Z,21.87
2022-12-04T12:54:39.674Z,39.60
2022-12-04T12:57:20.638Z,29.07
2022-12-04T12:59:57.508Z,27.50
2022-12-04T13:02:29.872Z,29.93
2022-12-04T13:05:00.495Z,23.70
2022-12-04T13:07:33.324Z,23.10
2022-12-04T13:10:03.459Z,22.17
2022-12-04T13:12:38.659Z,22.93
2022-12-04T13:15:05.736Z,29.30
2022-12-04T13:17:35.834Z,30.07
2022-12-04T13:20:09.845Z,24.50
2022-12-04T13:23:00.881Z,24.93
2022-12-04T13:25:40.884Z,20.50
2022-12-04T13:28:25.680Z,20.37
2022-12-04T13:31:20.365Z,20.10
2022-12-04T13:33:57.342Z,15.40
2022-12-04T13:36:51.126Z,16.83
2022-12-04T13:39:47.117Z,20.97
2022-12-04T13:42:25.621Z,27.07
2022-12-04T13:44:54.979Z,28.00
2022-12-04T13:47:28.197Z,26.00
2022-12-04T13:50:18.391Z,23.60
2022-12-04T13:52:47.209Z,26.63
2022-12-04T13:55:28.592Z,21.27
2022-12-04T13:58:21.159Z,21.27
2022-12-04T14:00:48.295Z,22.37
2022-12-04T14:03:28.254Z,21.03
2022-12-04T14:05:55.706Z,27.73
2022-12-04T14:08:28.984Z,25.37
2022-12-04T14:10:58.815Z,18.33
2022-12-04T14:13:29.554Z,17.83
2022-12-04T14:16:04.946Z,17.33
2022-12-04T14:18:31.853Z,15.37
2022-12-04T14:21:04.558Z,18.23
2022-12-04T14:23:40.990Z,15.93
2022-12-04T14:26:23.203Z,15.60
2022-12-04T14:28:50.562Z,23.97
2022-12-04T14:31:17.546Z,46.63
2022-12-04T14:33:48.789Z,43.37
2022-12-04T14:36:25.408Z,158.30
2022-12-04T14:39:01.114Z,160.87
2022-12-04T14:41:28.415Z,74.37
2022-12-04T14:43:56.568Z,26.47
2022-12-04T14:46:39.824Z,64.00
2022-12-04T14:49:35.682Z,40.77
2022-12-04T14:52:11.361Z,86.70
2022-12-04T14:55:06.616Z,45.27
2022-12-04T14:58:22.583Z,34.43
2022-12-04T15:00:54.182Z,30.73
2022-12-04T15:03:22.199Z,28.97
2022-12-04T15:05:50.365Z,34.50
2022-12-04T15:08:20.236Z,40.93
2022-12-04T15:11:09.226Z,26.20
2022-12-04T15:13:37.678Z,30.67
2022-12-04T15:16:19.840Z,20.27
2022-12-04T15:18:54.699Z,18.53
2022-12-04T15:21:22.578Z,32.77
2022-12-04T15:23:49.807Z,36.07
2022-12-04T15:26:22.490Z,29.73
2022-12-04T15:29:01.402Z,42.70
2022-12-04T15:31:31.507Z,21.57
2022-12-04T15:34:09.032Z,28.37
2022-12-04T15:36:44.805Z,25.87
2022-12-04T15:39:23.401Z,25.27
2022-12-04T15:41:50.252Z,73.57
2022-12-04T15:44:35.567Z,44.47
2022-12-04T15:47:05.125Z,44.07
2022-12-04T15:49:32.980Z,33.93
2022-12-04T15:52:06.186Z,33.17
2022-12-04T15:54:33.629Z,29.00
2022-12-04T15:57:03.729Z,30.97
2022-12-04T15:59:30.988Z,27.07
2022-12-04T16:02:09.134Z,19.97
2022-12-04T16:04:41.091Z,18.33
2022-12-04T16:07:28.426Z,17.93
2022-12-04T16:10:03.787Z,32.33
2022-12-04T16:12:32.080Z,28.97
2022-12-04T16:14:59.216Z,19.70
2022-12-04T16:17:33.012Z,21.90
2022-12-04T16:20:00.931Z,20.40
2022-12-04T16:22:29.991Z,17.20
2022-12-04T16:24:57.311Z,15.27
2022-12-04T16:27:24.491Z,17.87
2022-12-04T16:29:52.415Z,17.33
2022-12-04T16:32:21.022Z,17.93
2022-12-04T16:34:48.359Z,26.50
2022-12-04T16:37:18.406Z,19.83
2022-12-04T16:39:45.822Z,19.87
2022-12-04T16:42:18.799Z,17.67
2022-12-04T16:44:46.130Z,17.33
2022-12-04T16:47:13.736Z,20.33
2022-12-04T16:49:41.342Z,18.00
2022-12-04T16:52:09.595Z,18.33
2022-12-04T16:54:36.911Z,17.53
2022-12-04T16:57:03.796Z,28.23
2022-12-04T16:59:30.819Z,32.10
2022-12-04T17:01:58.209Z,25.70
2022-12-04T17:04:25.376Z,18.57
2022-12-04T17:06:52.264Z,17.30
2022-12-04T17:09:19.443Z,23.60
2022-12-04T17:11:46.278Z,19.40
2022-12-04T17:14:13.428Z,19.10
2022-12-04T17:16:47.825Z,20.83
2022-12-04T17:19:18.005Z,25.70
2022-12-04T17:21:46.332Z,27.50
2022-12-04T17:24:13.863Z,20.77
2022-12-04T17:26:40.664Z,18.83
2022-12-04T17:29:07.790Z,18.67
2022-12-04T17:31:34.615Z,23.03
2022-12-04T17:34:01.747Z,38.80
2022-12-04T17:36:28.810Z,20.87
2022-12-04T17:38:57.244Z,18.17
2022-12-04T17:41:24.474Z,20.83
2022-12-04T17:43:51.957Z,20.77
2022-12-04T17:46:22.924Z,29.00
2022-12-04T17:48:50.232Z,29.13
2022-12-04T17:51:21.660Z,23.93
2022-12-04T17:53:49.037Z,26.30
2022-12-04T17:56:21.305Z,24.47
2022-12-04T17:58:49.907Z,25.27
2022-12-04T18:01:19.705Z,23.17
2022-12-04T18:03:54.927Z,20.93
2022-12-04T18:06:26.747Z,23.07
2022-12-04T18:08:54.030Z,33.10
2022-12-04T18:11:22.767Z,34.90
2022-12-04T18:13:54.576Z,22.10
2022-12-04T18:16:21.431Z,22.50
2022-12-04T18:18:48.528Z,18.80
2022-12-04T18:21:15.547Z,30.77
2022-12-04T18:23:46.142Z,21.10
2022-12-04T18:26:16.569Z,21.57
2022-12-04T18:28:43.826Z,21.40
2022-12-04T18:31:11.588Z,22.77
2022-12-04T18:33:40.343Z,31.30
2022-12-04T18:36:09.364Z,37.80
2022-12-04T18:38:36.451Z,30.37
2022-12-04T18:41:07.031Z,30.97
2022-12-04T18:43:39.416Z,32.73
2022-12-04T18:46:09.933Z,23.93
2022-12-04T18:48:38.031Z,29.07
2022-12-04T18:51:19.305Z,23.73
2022-12-04T18:53:47.387Z,22.07
2022-12-04T18:56:14.631Z,30.43
2022-12-04T18:58:42.723Z,34.03
2022-12-04T19:01:21.066Z,27.07
2022-12-04T19:03:48.341Z,26.50
2022-12-04T19:06:15.410Z,23.40
2022-12-04T19:08:43.394Z,34.73
2022-12-04T19:11:13.074Z,23.87
2022-12-04T19:13:40.353Z,25.60
2022-12-04T19:16:16.025Z,23.80
2022-12-04T19:18:45.337Z,26.33
2022-12-04T19:21:14.123Z,35.23
2022-12-04T19:23:42.275Z,48.03
2022-12-04T19:26:09.109Z,32.10
2022-12-04T19:28:36.506Z,34.47
2022-12-04T19:31:03.314Z,28.13
2022-12-04T19:33:30.454Z,25.73
2022-12-04T19:35:58.253Z,24.23
2022-12-04T19:38:25.748Z,26.80
2022-12-04T19:41:22.845Z,29.37
2022-12-04T19:43:51.660Z,28.03
2022-12-04T19:46:22.499Z,50.40
2022-12-04T19:48:50.246Z,30.90
2022-12-04T19:51:20.003Z,27.47
2022-12-04T19:53:48.135Z,28.33
2022-12-04T19:56:17.636Z,24.83
2022-12-04T19:58:45.156Z,28.53
2022-12-04T20:01:17.198Z,28.43
2022-12-04T20:03:46.034Z,29.20
2022-12-04T20:06:15.832Z,40.50
2022-12-04T20:08:43.383Z,37.10
2022-12-04T20:11:19.596Z,28.93
2022-12-04T20:13:47.464Z,34.63
2022-12-04T20:16:16.881Z,31.77
2022-12-04T20:18:44.310Z,28.17
2022-12-04T20:21:12.028Z,28.10
2022-12-04T20:23:43.964Z,28.43
2022-12-04T20:26:12.544Z,26.17
2022-12-04T20:28:40.760Z,27.43
2022-12-04T20:31:15.993Z,27.53
2022-12-04T20:33:44.715Z,46.80
2022-12-04T20:36:12.308Z,34.77
2022-12-04T20:38:40.118Z,31.20
2022-12-04T20:41:09.141Z,33.33
2022-12-04T20:43:36.823Z,28.30
2022-12-04T20:46:13.704Z,25.03
2022-12-04T20:48:46.486Z,30.57
2022-12-04T20:51:13.475Z,28.07
2022-12-04T20:53:40.517Z,27.90
2022-12-04T20:56:07.845Z,36.67
2022-12-04T20:58:34.901Z,41.17
2022-12-04T21:01:09.355Z,31.93
2022-12-04T21:03:36.720Z,30.77
2022-12-04T21:06:03.879Z,35.97
2022-12-04T21:08:50.827Z,28.90
2022-12-04T21:11:17.639Z,34.23
2022-12-04T21:14:03.165Z,31.43
2022-12-04T21:16:30.035Z,28.63
2022-12-04T21:18:57.230Z,40.43
2022-12-04T21:21:26.382Z,35.27
2022-12-04T21:23:53.574Z,42.37
2022-12-04T21:26:20.741Z,34.93
2022-12-04T21:28:48.214Z,31.80
2022-12-04T21:31:15.183Z,33.73
2022-12-04T21:33:42.411Z,26.87
2022-12-04T21:36:10.126Z,29.07
2022-12-04T21:38:38.503Z,31.57
2022-12-04T21:41:09.153Z,27.27
2022-12-04T21:43:36.795Z,65.47
2022-12-04T21:46:09.538Z,35.33
2022-12-04T21:48:37.207Z,33.63
2022-12-04T21:51:16.863Z,29.90
2022-12-04T21:53:54.847Z,26.60
2022-12-04T21:56:22.496Z,27.90
2022-12-04T21:58:49.646Z,24.60
2022-12-04T22:01:17.395Z,26.80
2022-12-04T22:03:44.591Z,24.63
2022-12-04T22:06:11.365Z,44.33
2022-12-04T22:08:40.058Z,39.13
2022-12-04T22:11:11.244Z,27.70
2022-12-04T22:13:39.271Z,27.00
2022-12-04T22:16:09.411Z,29.50
2022-12-04T22:18:37.054Z,60.77
2022-12-04T22:21:05.517Z,28.83
2022-12-04T22:23:32.668Z,24.67
2022-12-04T22:26:07.166Z,24.73
2022-12-04T22:28:34.926Z,30.20
2022-12-04T22:31:06.576Z,43.00
2022-12-04T22:33:34.082Z,46.83
2022-12-04T22:36:02.879Z,33.97
2022-12-04T22:38:30.108Z,32.70
2022-12-04T22:41:01.719Z,39.20
2022-12-04T22:43:30.126Z,25.10
2022-12-04T22:45:57.501Z,22.63
2022-12-04T22:48:25.823Z,23.70
2022-12-04T22:51:02.207Z,24.63
2022-12-04T22:53:30.915Z,65.37
2022-12-04T22:55:57.691Z,39.23
2022-12-04T22:58:24.735Z,28.53
2022-12-04T23:00:51.510Z,29.07
2022-12-04T23:03:18.615Z,25.90
2022-12-04T23:05:45.422Z,29.87
2022-12-04T23:08:12.504Z,24.63
2022-12-04T23:10:39.334Z,24.57
2022-12-04T23:13:06.706Z,22.37
2022-12-04T23:15:37.399Z,24.27
2022-12-04T23:18:05.386Z,28.30
2022-12-04T23:20:32.735Z,36.67
2022-12-04T23:22:59.923Z,27.40
2022-12-04T23:25:26.939Z,23.87
2022-12-04T23:27:54.210Z,22.33
2022-12-04T23:30:26.153Z,23.97
2022-12-04T23:32:54.644Z,20.70
2022-12-04T23:35:21.410Z,22.87
2022-12-04T23:37:48.478Z,21.20
2022-12-04T23:40:15.314Z,24.23
2022-12-04T23:42:42.335Z,18.80
2022-12-04T23:45:09.362Z,26.07
2022-12-04T23:47:36.663Z,32.90
2022-12-04T23:50:04.169Z,31.80
2022-12-04T23:52:31.216Z,28.00
2022-12-04T23:54:57.973Z,30.00
2022-12-04T23:57:25.013Z,72.03
2022-12-04T23:59:52.554Z,19.40
